createdAt,value
2023-11-25T00:01:06.562Z,2.80
2023-11-25T00:03:33.672Z,2.40
2023-11-25T00:06:00.735Z,2.13
2023-11-25T00:08:29.125Z,2.20
2023-11-25T00:10:56.520Z,2.20
2023-11-25T00:13:23.629Z,2.20
2023-11-25T00:15:50.714Z,2.10
2023-11-25T00:18:17.891Z,2.20
2023-11-25T00:20:45.319Z,2.73
2023-11-25T00:23:12.680Z,2.10
2023-11-25T00:25:39.812Z,2.10
2023-11-25T00:28:07.198Z,2.23
2023-11-25T00:30:34.512Z,2.10
2023-11-25T00:33:01.655Z,2.10
2023-11-25T00:35:28.819Z,2.00
2023-11-25T00:37:56.278Z,2.40
2023-11-25T00:40:23.347Z,2.37
2023-11-25T00:42:50.654Z,2.13
2023-11-25T00:45:17.750Z,2.00
2023-11-25T00:47:44.917Z,1.80
2023-11-25T00:50:12.651Z,2.30
2023-11-25T00:52:40.393Z,2.10
2023-11-25T00:55:08.765Z,2.10
2023-11-25T00:57:36.420Z,1.93
2023-11-25T01:00:05.062Z,1.93
2023-11-25T01:02:32.286Z,1.97
2023-11-25T01:05:00.458Z,1.90
2023-11-25T01:07:27.798Z,1.70
2023-11-25T01:09:54.806Z,1.70
2023-11-25T01:12:22.044Z,1.70
2023-11-25T01:14:49.220Z,1.43
2023-11-25T01:17:16.540Z,1.60
2023-11-25T01:19:43.838Z,1.47
2023-11-25T01:22:11.096Z,1.60
2023-11-25T01:24:38.276Z,1.43
2023-11-25T01:27:05.583Z,1.63
2023-11-25T01:29:33.075Z,1.40
2023-11-25T01:32:00.346Z,1.50
2023-11-25T01:34:27.764Z,1.70
2023-11-25T01:36:55.152Z,1.70
2023-11-25T01:39:22.384Z,1.33
2023-11-25T01:41:49.567Z,1.40
2023-11-25T01:44:16.616Z,1.57
2023-11-25T01:46:45.072Z,1.50
2023-11-25T01:49:15.550Z,1.40
2023-11-25T01:51:44.911Z,1.40
2023-11-25T01:54:15.077Z,1.40
2023-11-25T01:56:45.382Z,1.47
2023-11-25T01:59:16.053Z,1.60
2023-11-25T02:01:44.498Z,1.60
2023-11-25T02:04:11.876Z,1.40
2023-11-25T02:06:41.128Z,1.40
2023-11-25T02:09:08.361Z,1.43
2023-11-25T02:11:55.532Z,1.53
2023-11-25T02:14:23.867Z,1.33
2023-11-25T02:16:51.254Z,1.30
2023-11-25T02:19:19.790Z,1.47
2023-11-25T02:21:46.985Z,1.40
2023-11-25T02:24:14.433Z,1.60
2023-11-25T02:26:41.984Z,1.53
2023-11-25T02:29:09.066Z,1.20
2023-11-25T02:31:37.306Z,1.57
2023-11-25T02:34:04.404Z,1.50
2023-11-25T02:36:31.823Z,1.70
2023-11-25T02:39:00.419Z,1.20
2023-11-25T02:41:29.383Z,1.40
2023-11-25T02:43:56.842Z,1.50
2023-11-25T02:46:24.002Z,1.40
2023-11-25T02:48:51.076Z,1.50
2023-11-25T02:51:18.171Z,1.70
2023-11-25T02:53:45.680Z,1.50
2023-11-25T02:56:13.034Z,1.17
2023-11-25T02:58:40.123Z,1.50
2023-11-25T03:01:07.510Z,1.50
2023-11-25T03:03:36.021Z,1.47
2023-11-25T03:06:03.885Z,1.30
2023-11-25T03:08:31.178Z,1.40
2023-11-25T03:10:58.614Z,1.30
2023-11-25T03:13:26.424Z,1.60
2023-11-25T03:15:54.017Z,1.33
2023-11-25T03:18:21.476Z,1.50
2023-11-25T03:20:48.683Z,1.50
2023-11-25T03:23:16.104Z,1.57
2023-11-25T03:25:43.393Z,1.30
2023-11-25T03:28:11.105Z,1.50
2023-11-25T03:30:38.445Z,1.70
2023-11-25T03:33:05.671Z,1.70
2023-11-25T03:35:33.623Z,1.60
2023-11-25T03:38:00.923Z,1.40
2023-11-25T03:40:28.091Z,1.50
2023-11-25T03:42:55.122Z,1.33
2023-11-25T03:45:22.203Z,1.50
2023-11-25T03:47:49.584Z,1.40
2023-11-25T03:50:17.182Z,1.40
2023-11-25T03:52:44.665Z,1.47
2023-11-25T03:55:11.896Z,1.30
2023-11-25T03:57:40.481Z,1.43
2023-11-25T04:00:09.476Z,1.40
2023-11-25T04:02:37.017Z,1.27
2023-11-25T04:05:04.517Z,1.87
2023-11-25T04:07:31.857Z,2.50
2023-11-25T04:09:58.989Z,2.30
2023-11-25T04:12:26.238Z,2.40
2023-11-25T04:14:53.313Z,2.20
2023-11-25T04:17:20.823Z,2.07
2023-11-25T04:19:48.177Z,2.00
2023-11-25T04:22:15.468Z,2.03
2023-11-25T04:24:42.708Z,1.87
2023-11-25T04:27:09.790Z,2.00
2023-11-25T04:29:36.884Z,1.70
2023-11-25T04:32:04.555Z,1.97
2023-11-25T04:34:33.181Z,2.20
2023-11-25T04:37:00.232Z,4.87
2023-11-25T04:39:27.889Z,4.30
2023-11-25T04:41:55.172Z,4.80
2023-11-25T04:44:22.825Z,3.27
2023-11-25T04:46:49.888Z,2.60
2023-11-25T04:49:17.115Z,2.40
2023-11-25T04:51:44.199Z,2.30
2023-11-25T04:54:11.302Z,2.47
2023-11-25T04:56:38.350Z,2.47
2023-11-25T04:59:05.803Z,2.90
2023-11-25T05:01:33.064Z,2.70
2023-11-25T05:04:00.311Z,2.70
2023-11-25T05:06:27.649Z,2.67
2023-11-25T05:08:55.011Z,2.70
2023-11-25T05:11:22.445Z,2.87
2023-11-25T05:13:49.840Z,3.00
2023-11-25T05:16:17.406Z,2.73
2023-11-25T05:18:44.724Z,3.00
2023-11-25T05:21:11.948Z,2.80
2023-11-25T05:23:39.189Z,3.00
2023-11-25T05:26:06.749Z,3.10
2023-11-25T05:28:33.845Z,2.60
2023-11-25T05:31:01.209Z,3.00
2023-11-25T05:33:28.415Z,3.20
2023-11-25T05:35:56.424Z,3.10
2023-11-25T05:38:28.542Z,9.77
2023-11-25T05:40:56.157Z,7.17
2023-11-25T05:43:24.685Z,5.03
2023-11-25T05:45:52.760Z,3.57
2023-11-25T05:48:21.524Z,3.90
2023-11-25T05:50:48.729Z,3.30
2023-11-25T05:53:16.443Z,4.20
2023-11-25T05:55:43.751Z,3.80
2023-11-25T05:58:10.859Z,4.03
2023-11-25T06:00:37.969Z,3.93
2023-11-25T06:03:04.999Z,4.47
2023-11-25T06:05:32.110Z,4.77
2023-11-25T06:07:59.442Z,4.17
2023-11-25T06:10:26.650Z,4.33
2023-11-25T06:12:53.761Z,4.33
2023-11-25T06:15:20.925Z,4.03
2023-11-25T06:17:49.027Z,4.17
2023-11-25T06:20:16.602Z,4.20
2023-11-25T06:22:44.319Z,3.83
2023-11-25T06:25:11.420Z,4.07
2023-11-25T06:27:38.649Z,4.10
2023-11-25T06:30:06.463Z,4.30
2023-11-25T06:32:33.735Z,4.10
2023-11-25T06:35:01.025Z,4.10
2023-11-25T06:37:28.373Z,4.13
2023-11-25T06:39:56.207Z,4.70
2023-11-25T06:42:23.907Z,4.47
2023-11-25T06:44:51.104Z,4.20
2023-11-25T06:47:18.231Z,3.83
2023-11-25T06:49:49.136Z,4.20
2023-11-25T06:52:16.817Z,4.13
2023-11-25T06:54:44.632Z,4.23
2023-11-25T06:57:12.001Z,4.60
2023-11-25T06:59:39.220Z,5.00
2023-11-25T07:02:06.857Z,5.57
2023-11-25T07:04:36.036Z,6.70
2023-11-25T07:07:03.502Z,6.17
2023-11-25T07:09:30.667Z,5.27
2023-11-25T07:11:57.847Z,5.73
2023-11-25T07:14:25.371Z,7.07
2023-11-25T07:16:53.305Z,6.27
2023-11-25T07:19:20.871Z,5.93
2023-11-25T07:21:47.965Z,6.57
2023-11-25T07:24:15.060Z,6.23
2023-11-25T07:26:42.551Z,5.77
2023-11-25T07:29:09.627Z,6.67
2023-11-25T07:31:37.214Z,6.67
2023-11-25T07:34:04.928Z,5.97
2023-11-25T07:36:35.404Z,6.00
2023-11-25T07:39:02.527Z,6.57
2023-11-25T07:41:29.748Z,21.50
2023-11-25T07:43:56.914Z,14.57
2023-11-25T07:46:24.304Z,45.57
2023-11-25T07:48:51.492Z,8.03
2023-11-25T07:51:18.623Z,9.83
2023-11-25T07:53:46.767Z,15.60
2023-11-25T07:56:13.971Z,11.10
2023-11-25T07:58:41.014Z,8.17
2023-11-25T08:01:08.122Z,7.57
2023-11-25T08:03:35.566Z,9.33
2023-11-25T08:06:02.712Z,15.20
2023-11-25T08:08:29.771Z,21.00
2023-11-25T08:10:57.431Z,11.87
2023-11-25T08:13:24.500Z,7.67
2023-11-25T08:15:52.783Z,9.43
2023-11-25T08:18:20.148Z,7.97
2023-11-25T08:20:47.154Z,8.23
2023-11-25T08:23:14.198Z,8.40
2023-11-25T08:25:41.551Z,7.20
2023-11-25T08:28:08.833Z,8.30
2023-11-25T08:30:35.828Z,8.67
2023-11-25T08:33:02.922Z,7.53
2023-11-25T08:35:30.192Z,7.47
2023-11-25T08:37:57.368Z,7.97
2023-11-25T08:40:24.349Z,7.77
2023-11-25T08:42:51.311Z,7.80
2023-11-25T08:45:18.349Z,7.70
2023-11-25T08:47:45.373Z,7.93
2023-11-25T08:50:13.011Z,7.13
2023-11-25T08:52:40.534Z,7.10
2023-11-25T08:55:08.850Z,6.60
2023-11-25T08:57:36.138Z,6.40
2023-11-25T09:00:07.078Z,7.30
2023-11-25T09:02:34.217Z,6.50
2023-11-25T09:05:09.224Z,5.87
2023-11-25T09:07:38.642Z,5.77
2023-11-25T09:10:06.622Z,5.70
2023-11-25T09:12:34.017Z,5.90
2023-11-25T09:15:01.616Z,6.83
2023-11-25T09:17:28.720Z,6.47
2023-11-25T09:19:56.004Z,4.90
2023-11-25T09:22:23.131Z,6.27
2023-11-25T09:24:50.211Z,5.00
2023-11-25T09:27:17.264Z,5.03
2023-11-25T09:29:44.280Z,5.20
2023-11-25T09:32:11.573Z,5.33
2023-11-25T09:34:40.401Z,4.97
2023-11-25T09:37:07.507Z,5.20
2023-11-25T09:39:34.511Z,5.57
2023-11-25T09:42:01.603Z,5.43
2023-11-25T09:44:30.638Z,5.77
2023-11-25T09:46:57.980Z,5.00
2023-11-25T09:49:25.275Z,5.10
2023-11-25T09:51:52.991Z,5.20
2023-11-25T09:54:21.932Z,4.90
2023-11-25T09:56:49.660Z,4.67
2023-11-25T09:59:17.207Z,5.47
2023-11-25T10:01:44.742Z,4.63
2023-11-25T10:04:16.679Z,4.67
2023-11-25T10:06:43.936Z,4.20
2023-11-25T10:09:10.974Z,3.87
2023-11-25T10:11:39.594Z,3.60
2023-11-25T10:14:10.520Z,3.90
2023-11-25T10:16:38.728Z,3.57
2023-11-25T10:19:17.986Z,3.40
2023-11-25T10:21:46.545Z,3.17
2023-11-25T10:24:13.818Z,2.97
2023-11-25T10:26:41.668Z,2.47
2023-11-25T10:29:08.922Z,3.03
2023-11-25T10:31:36.192Z,3.03
2023-11-25T10:34:03.555Z,2.90
2023-11-25T10:36:30.735Z,2.97
2023-11-25T10:38:59.821Z,2.40
2023-11-25T10:41:27.874Z,2.07
2023-11-25T10:43:55.150Z,2.13
2023-11-25T10:46:38.476Z,2.03
2023-11-25T10:49:08.601Z,1.80
2023-11-25T10:51:38.391Z,2.57
2023-11-25T10:54:08.541Z,1.87
2023-11-25T10:56:36.631Z,2.07
2023-11-25T10:59:04.252Z,1.80
2023-11-25T11:01:33.309Z,1.60
2023-11-25T11:04:32.935Z,1.60
2023-11-25T11:07:05.455Z,1.70
2023-11-25T11:09:36.439Z,1.50
2023-11-25T11:12:06.775Z,1.50
2023-11-25T11:14:38.202Z,1.50
2023-11-25T11:17:14.610Z,1.60
2023-11-25T11:19:42.838Z,1.40
2023-11-25T11:22:13.949Z,1.70
2023-11-25T11:25:00.086Z,1.50
2023-11-25T11:28:01.129Z,1.50
2023-11-25T11:31:06.194Z,1.40
2023-11-25T11:33:33.551Z,1.43
2023-11-25T11:36:00.599Z,1.40
2023-11-25T11:38:29.684Z,1.50
2023-11-25T11:41:20.977Z,1.30
2023-11-25T11:44:10.368Z,1.57
2023-11-25T11:46:39.088Z,1.50
2023-11-25T11:49:17.357Z,1.50
2023-11-25T11:52:01.552Z,1.20
2023-11-25T11:54:28.843Z,1.33
2023-11-25T11:57:00.216Z,1.30
2023-11-25T12:00:03.069Z,1.50
2023-11-25T12:02:34.102Z,1.53
2023-11-25T12:05:02.240Z,1.50
2023-11-25T12:07:29.792Z,1.60
2023-11-25T12:09:57.418Z,1.70
2023-11-25T12:12:25.526Z,1.70
2023-11-25T12:14:55.107Z,1.77
2023-11-25T12:17:23.232Z,1.50
2023-11-25T12:19:53.397Z,1.50
2023-11-25T12:22:20.501Z,1.70
2023-11-25T12:24:47.586Z,1.30
2023-11-25T12:27:18.483Z,1.50
2023-11-25T12:29:45.569Z,1.70
2023-11-25T12:32:12.650Z,1.70
2023-11-25T12:34:39.878Z,2.00
2023-11-25T12:37:06.977Z,1.90
2023-11-25T12:39:34.324Z,1.67
2023-11-25T12:42:03.245Z,1.50
2023-11-25T12:44:49.990Z,1.43
2023-11-25T12:47:17.905Z,1.60
2023-11-25T12:49:45.004Z,1.60
2023-11-25T12:52:22.592Z,1.50
2023-11-25T12:54:49.720Z,1.67
2023-11-25T12:57:17.349Z,1.63
2023-11-25T12:59:44.818Z,1.70
2023-11-25T13:02:13.905Z,1.70
2023-11-25T13:04:45.724Z,1.63
2023-11-25T13:07:32.276Z,1.80
2023-11-25T13:09:59.811Z,2.10
2023-11-25T13:12:29.322Z,2.00
2023-11-25T13:14:56.399Z,2.27
2023-11-25T13:17:23.961Z,2.20
2023-11-25T13:19:51.306Z,2.20
2023-11-25T13:22:18.586Z,2.10
2023-11-25T13:24:45.856Z,2.10
2023-11-25T13:27:12.962Z,2.30
2023-11-25T13:29:39.922Z,2.30
2023-11-25T13:32:07.256Z,2.77
2023-11-25T13:34:34.451Z,2.20
2023-11-25T13:37:01.503Z,2.40
2023-11-25T13:39:28.539Z,2.83
2023-11-25T13:41:55.937Z,2.40
2023-11-25T13:44:23.200Z,2.60
2023-11-25T13:46:50.440Z,2.57
2023-11-25T13:49:17.484Z,4.50
2023-11-25T13:51:44.602Z,2.97
2023-11-25T13:54:11.850Z,2.77
2023-11-25T13:56:38.931Z,3.17
2023-11-25T13:59:06.103Z,3.10
2023-11-25T14:01:33.275Z,3.60
2023-11-25T14:04:00.530Z,3.13
2023-11-25T14:06:27.835Z,3.00
2023-11-25T14:08:55.472Z,2.70
2023-11-25T14:11:22.554Z,3.23
2023-11-25T14:13:49.804Z,3.17
2023-11-25T14:16:17.198Z,3.17
2023-11-25T14:18:44.887Z,3.00
2023-11-25T14:21:12.305Z,2.67
2023-11-25T14:23:39.346Z,2.10
2023-11-25T14:26:06.477Z,1.80
2023-11-25T14:28:33.609Z,1.80
2023-11-25T14:31:00.609Z,1.80
2023-11-25T14:33:27.777Z,2.00
2023-11-25T14:35:54.802Z,1.90
2023-11-25T14:38:22.129Z,2.10
2023-11-25T14:40:49.608Z,2.60
2023-11-25T14:43:16.733Z,2.40
2023-11-25T14:45:43.922Z,2.87
2023-11-25T14:48:11.096Z,3.10
2023-11-25T14:50:38.200Z,3.70
2023-11-25T14:53:05.678Z,5.43
2023-11-25T14:55:32.835Z,13.00
2023-11-25T14:57:59.930Z,9.70
2023-11-25T15:00:27.109Z,8.20
2023-11-25T15:02:54.469Z,9.83
2023-11-25T15:05:21.617Z,6.87
2023-11-25T15:07:48.681Z,4.47
2023-11-25T15:10:15.834Z,3.77
2023-11-25T15:12:43.549Z,4.00
2023-11-25T15:15:10.871Z,3.60
2023-11-25T15:17:38.002Z,3.10
2023-11-25T15:20:05.957Z,2.83
2023-11-25T15:22:33.038Z,2.70
2023-11-25T15:25:00.181Z,5.07
2023-11-25T15:27:27.375Z,3.00
2023-11-25T15:30:02.684Z,3.00
2023-11-25T15:32:29.844Z,2.40
2023-11-25T15:34:57.598Z,2.10
2023-11-25T15:37:24.765Z,2.30
2023-11-25T15:39:52.226Z,2.60
2023-11-25T15:42:20.864Z,2.93
2023-11-25T15:44:48.026Z,4.40
2023-11-25T15:47:15.467Z,2.70
2023-11-25T15:49:42.887Z,2.70
2023-11-25T15:52:09.938Z,3.33
2023-11-25T15:54:36.995Z,3.30
2023-11-25T15:57:04.167Z,4.33
2023-11-25T15:59:31.258Z,4.33
2023-11-25T16:01:58.819Z,3.60
2023-11-25T16:04:26.111Z,4.30
2023-11-25T16:06:55.101Z,3.17
2023-11-25T16:09:22.488Z,3.30
2023-11-25T16:11:49.540Z,3.57
2023-11-25T16:14:16.639Z,5.00
2023-11-25T16:16:43.819Z,3.17
2023-11-25T16:19:10.902Z,3.30
2023-11-25T16:21:37.912Z,2.90
2023-11-25T16:24:05.787Z,3.80
2023-11-25T16:26:33.085Z,2.93
2023-11-25T16:29:00.163Z,3.70
2023-11-25T16:31:27.430Z,5.33
2023-11-25T16:33:54.603Z,4.00
2023-11-25T16:36:22.396Z,3.60
2023-11-25T16:38:49.796Z,2.27
2023-11-25T16:41:16.829Z,2.70
2023-11-25T16:43:43.968Z,3.10
2023-11-25T16:46:11.117Z,3.10
2023-11-25T16:48:48.447Z,2.87
2023-11-25T16:51:20.888Z,2.80
2023-11-25T16:53:48.114Z,2.83
2023-11-25T16:56:15.523Z,2.80
2023-11-25T16:58:42.721Z,3.10
2023-11-25T17:01:09.828Z,3.10
2023-11-25T17:03:36.980Z,3.50
2023-11-25T17:06:06.590Z,3.60
2023-11-25T17:08:35.048Z,3.60
2023-11-25T17:11:02.398Z,3.67
2023-11-25T17:13:29.669Z,3.40
2023-11-25T17:15:57.018Z,3.43
2023-11-25T17:18:26.281Z,3.10
2023-11-25T17:20:53.609Z,3.03
2023-11-25T17:23:20.642Z,3.10
2023-11-25T17:25:48.052Z,3.20
2023-11-25T17:28:16.727Z,3.50
2023-11-25T17:30:43.938Z,4.07
2023-11-25T17:33:11.108Z,4.00
2023-11-25T17:35:38.182Z,3.20
2023-11-25T17:38:05.325Z,3.33
2023-11-25T17:40:32.706Z,3.20
2023-11-25T17:42:59.814Z,3.37
2023-11-25T17:45:26.842Z,2.80
2023-11-25T17:47:53.981Z,3.10
2023-11-25T17:50:21.085Z,2.93
2023-11-25T17:52:48.168Z,2.80
2023-11-25T17:55:15.310Z,3.13
2023-11-25T17:57:42.386Z,3.10
2023-11-25T18:00:09.652Z,3.17
2023-11-25T18:02:36.976Z,2.70
2023-11-25T18:05:05.039Z,3.10
2023-11-25T18:07:32.453Z,3.30
2023-11-25T18:09:59.497Z,2.90
2023-11-25T18:12:26.752Z,3.30
2023-11-25T18:14:53.813Z,3.60
2023-11-25T18:17:20.939Z,3.67
2023-11-25T18:19:48.356Z,3.30
2023-11-25T18:22:15.371Z,3.70
2023-11-25T18:24:42.513Z,3.50
2023-11-25T18:27:09.785Z,3.27
2023-11-25T18:29:36.848Z,3.73
2023-11-25T18:32:04.265Z,2.97
2023-11-25T18:34:31.353Z,2.63
2023-11-25T18:36:59.053Z,3.03
2023-11-25T18:39:26.089Z,2.77
2023-11-25T18:41:53.142Z,3.00
2023-11-25T18:44:25.584Z,3.70
2023-11-25T18:46:52.679Z,3.57
2023-11-25T18:49:20.158Z,3.60
2023-11-25T18:51:47.193Z,4.10
2023-11-25T18:54:14.263Z,4.03
2023-11-25T18:56:41.567Z,3.93
2023-11-25T18:59:10.465Z,3.40
2023-11-25T19:01:37.702Z,4.53
2023-11-25T19:04:05.158Z,3.27
2023-11-25T19:06:32.203Z,2.93
2023-11-25T19:08:59.246Z,2.90
2023-11-25T19:11:26.386Z,2.47
2023-11-25T19:13:53.486Z,2.80
2023-11-25T19:16:20.810Z,2.67
2023-11-25T19:18:48.686Z,2.60
2023-11-25T19:21:15.934Z,2.57
2023-11-25T19:23:43.226Z,2.50
2023-11-25T19:26:10.333Z,2.50
2023-11-25T19:28:37.628Z,2.70
2023-11-25T19:31:04.972Z,2.40
2023-11-25T19:33:32.146Z,2.50
2023-11-25T19:36:02.426Z,1.90
2023-11-25T19:38:29.487Z,2.40
2023-11-25T19:40:56.772Z,2.33
2023-11-25T19:43:23.821Z,2.60
2023-11-25T19:45:50.900Z,3.90
2023-11-25T19:48:17.888Z,3.50
2023-11-25T19:50:45.267Z,3.30
2023-11-25T19:53:12.426Z,3.10
2023-11-25T19:55:39.860Z,2.60
2023-11-25T19:58:06.935Z,2.93
2023-11-25T20:00:41.256Z,3.10
2023-11-25T20:03:13.984Z,3.93
2023-11-25T20:05:41.305Z,4.17
2023-11-25T20:08:08.469Z,3.23
2023-11-25T20:10:35.544Z,2.67
2023-11-25T20:13:02.693Z,3.20
2023-11-25T20:15:30.040Z,3.03
2023-11-25T20:17:57.257Z,3.10
2023-11-25T20:20:24.287Z,3.10
2023-11-25T20:22:52.057Z,3.20
2023-11-25T20:25:19.138Z,3.33
2023-11-25T20:27:46.196Z,3.40
2023-11-25T20:30:13.818Z,3.53
2023-11-25T20:32:41.379Z,3.50
2023-11-25T20:35:09.050Z,3.20
2023-11-25T20:37:36.123Z,3.20
2023-11-25T20:40:03.421Z,3.13
2023-11-25T20:42:30.780Z,3.03
2023-11-25T20:44:57.819Z,3.97
2023-11-25T20:47:25.096Z,3.70
2023-11-25T20:49:52.471Z,3.50
2023-11-25T20:52:19.749Z,3.40
2023-11-25T20:54:47.030Z,3.40
2023-11-25T20:57:14.214Z,3.50
2023-11-25T20:59:41.316Z,3.70
2023-11-25T21:02:08.534Z,3.63
2023-11-25T21:04:35.863Z,3.83
2023-11-25T21:07:02.891Z,3.60
2023-11-25T21:09:29.944Z,3.70
2023-11-25T21:11:57.287Z,3.83
2023-11-25T21:14:24.337Z,3.67
2023-11-25T21:16:52.738Z,3.53
2023-11-25T21:19:19.762Z,3.33
2023-11-25T21:21:46.805Z,3.30
2023-11-25T21:24:14.081Z,3.53
2023-11-25T21:26:41.324Z,3.33
2023-11-25T21:29:08.451Z,3.73
2023-11-25T21:31:36.388Z,3.93
2023-11-25T21:34:03.416Z,3.57
2023-11-25T21:36:30.457Z,3.80
2023-11-25T21:38:57.730Z,3.60
2023-11-25T21:41:24.991Z,3.80
2023-11-25T21:43:52.357Z,6.60
2023-11-25T21:46:19.423Z,4.07
2023-11-25T21:48:46.518Z,3.80
2023-11-25T21:51:13.549Z,3.70
2023-11-25T21:53:41.479Z,3.40
2023-11-25T21:56:08.885Z,5.80
2023-11-25T21:58:35.933Z,3.70
2023-11-25T22:01:02.974Z,3.23
2023-11-25T22:03:30.192Z,3.50
2023-11-25T22:05:57.323Z,3.40
2023-11-25T22:08:24.388Z,3.40
2023-11-25T22:10:51.450Z,4.60
2023-11-25T22:13:19.371Z,5.13
2023-11-25T22:15:46.366Z,3.90
2023-11-25T22:18:16.831Z,4.20
2023-11-25T22:20:43.883Z,3.47
2023-11-25T22:23:10.894Z,3.30
2023-11-25T22:25:38.142Z,3.40
2023-11-25T22:28:05.354Z,3.60
2023-11-25T22:30:32.612Z,3.80
2023-11-25T22:33:00.040Z,3.77
2023-11-25T22:35:27.159Z,4.30
2023-11-25T22:37:54.549Z,3.90
2023-11-25T22:40:21.857Z,4.03
2023-11-25T22:42:48.951Z,3.97
2023-11-25T22:45:16.038Z,4.30
2023-11-25T22:47:43.537Z,4.57
2023-11-25T22:50:11.088Z,4.27
2023-11-25T22:52:38.177Z,4.63
2023-11-25T22:55:05.550Z,4.87
2023-11-25T22:57:32.867Z,5.07
2023-11-25T22:59:59.869Z,4.83
2023-11-25T23:02:29.759Z,5.23
2023-11-25T23:04:56.994Z,4.97
2023-11-25T23:07:24.352Z,4.70
2023-11-25T23:09:51.629Z,5.00
2023-11-25T23:12:18.678Z,5.20
2023-11-25T23:14:46.030Z,5.13
2023-11-25T23:17:13.325Z,5.03
2023-11-25T23:19:40.513Z,5.13
2023-11-25T23:22:07.801Z,5.03
2023-11-25T23:24:35.041Z,5.20
2023-11-25T23:27:02.134Z,5.33
2023-11-25T23:29:29.263Z,5.27
2023-11-25T23:32:03.680Z,5.57
2023-11-25T23:34:30.816Z,5.67
2023-11-25T23:36:58.135Z,4.97
2023-11-25T23:39:25.711Z,5.40
2023-11-25T23:41:53.098Z,5.77
2023-11-25T23:44:20.272Z,5.30
2023-11-25T23:46:47.482Z,4.93
2023-11-25T23:49:14.802Z,5.37
2023-11-25T23:51:42.197Z,5.30
2023-11-25T23:54:09.512Z,4.73
2023-11-25T23:56:36.628Z,4.70
2023-11-25T23:59:03.853Z,5.80
